createdAt,value
2017-12-29T00:00:00.608Z,5.17
2017-12-29T00:00:26.673Z,5.26
2017-12-29T00:00:52.770Z,5.26
2017-12-29T00:01:18.876Z,5.25
2017-12-29T00:01:44.974Z,5.29
2017-12-29T00:02:11.074Z,5.14
2017-12-29T00:02:37.175Z,5.26
2017-12-29T00:03:03.279Z,5.23
2017-12-29T00:03:29.375Z,5.26
2017-12-29T00:03:55.480Z,5.29
2017-12-29T00:04:21.576Z,5.36
2017-12-29T00:04:47.679Z,5.33
2017-12-29T00:05:13.781Z,5.33
2017-12-29T00:05:39.883Z,5.35
2017-12-29T00:06:05.996Z,5.23
2017-12-29T00:06:32.100Z,5.3
2017-12-29T00:06:58.201Z,5.3
2017-12-29T00:07:24.299Z,5.3
2017-12-29T00:07:50.405Z,5.32
2017-12-29T00:08:16.513Z,5.25
2017-12-29T00:08:42.618Z,5.23
2017-12-29T00:09:08.738Z,5.21
2017-12-29T00:09:34.837Z,5.25
2017-12-29T00:10:00.941Z,5.28
2017-12-29T00:10:27.037Z,5.3
2017-12-29T00:10:53.146Z,5.3
2017-12-29T00:11:19.239Z,5.32
2017-12-29T00:11:45.340Z,5.33
2017-12-29T00:12:11.463Z,5.23
2017-12-29T00:12:37.558Z,5.26
2017-12-29T00:13:03.663Z,5.35
2017-12-29T00:13:29.760Z,5.33
2017-12-29T00:13:55.884Z,5.29
2017-12-29T00:14:21.980Z,5.36
2017-12-29T00:14:48.085Z,5.29
2017-12-29T00:15:14.181Z,5.33
2017-12-29T00:15:40.283Z,5.35
2017-12-29T00:16:06.383Z,5.28
2017-12-29T00:16:32.499Z,5.33
2017-12-29T00:16:58.596Z,5.36
2017-12-29T00:17:24.696Z,5.33
2017-12-29T00:17:50.791Z,5.35
2017-12-29T00:18:16.896Z,5.39
2017-12-29T00:18:43.000Z,5.29
2017-12-29T00:19:09.097Z,5.26
2017-12-29T00:19:35.195Z,5.39
2017-12-29T00:20:01.324Z,5.28
2017-12-29T00:20:27.426Z,5.35
2017-12-29T00:20:53.522Z,5.25
2017-12-29T00:21:19.624Z,5.29
2017-12-29T00:21:45.731Z,5.26
2017-12-29T00:22:11.827Z,5.3
2017-12-29T00:22:37.923Z,5.3
2017-12-29T00:23:04.033Z,5.33
2017-12-29T00:23:30.121Z,5.36
2017-12-29T00:23:56.229Z,5.38
2017-12-29T00:24:22.331Z,5.39
2017-12-29T00:24:48.446Z,5.43
2017-12-29T00:25:14.551Z,5.43
2017-12-29T00:25:40.647Z,5.33
2017-12-29T00:26:06.752Z,5.35
2017-12-29T00:26:32.848Z,5.38
2017-12-29T00:26:58.954Z,5.32
2017-12-29T00:27:25.071Z,5.36
2017-12-29T00:27:51.170Z,5.29
2017-12-29T00:28:17.270Z,5.26
2017-12-29T00:28:43.368Z,5.36
2017-12-29T00:29:09.474Z,5.32
2017-12-29T00:29:35.576Z,5.33
2017-12-29T00:30:01.676Z,5.36
2017-12-29T00:30:27.775Z,5.33
2017-12-29T00:30:53.893Z,5.32
2017-12-29T00:31:19.990Z,5.32
2017-12-29T00:31:46.094Z,5.28
2017-12-29T00:32:12.199Z,5.28
2017-12-29T00:32:38.294Z,5.25
2017-12-29T00:33:04.401Z,5.33
2017-12-29T00:33:30.501Z,5.26
2017-12-29T00:33:56.598Z,5.29
2017-12-29T00:34:22.694Z,5.23
2017-12-29T00:34:48.802Z,5.32
2017-12-29T00:35:14.897Z,5.2
2017-12-29T00:35:40.997Z,5.2
2017-12-29T00:36:07.104Z,5.23
2017-12-29T00:36:33.202Z,5.26
2017-12-29T00:36:59.307Z,5.3
2017-12-29T00:37:25.404Z,5.3
2017-12-29T00:37:51.529Z,5.28
2017-12-29T00:38:17.635Z,5.29
2017-12-29T00:38:43.729Z,5.35
2017-12-29T00:39:09.834Z,5.2
2017-12-29T00:39:35.933Z,5.28
2017-12-29T00:40:02.039Z,5.21
2017-12-29T00:40:28.136Z,5.17
2017-12-29T00:40:54.242Z,5.21
2017-12-29T00:41:20.338Z,5.1
2017-12-29T00:41:46.469Z,5.14
2017-12-29T00:42:12.565Z,5.14
2017-12-29T00:42:38.671Z,5.12
2017-12-29T00:43:04.767Z,5.17
2017-12-29T00:43:30.874Z,5.2
2017-12-29T00:43:56.974Z,5.23
2017-12-29T00:44:23.070Z,5.15
2017-12-29T00:44:49.178Z,5.1
2017-12-29T00:45:15.271Z,5.11
2017-12-29T00:45:41.374Z,5.15
2017-12-29T00:46:07.469Z,5.1
2017-12-29T00:46:33.576Z,5.15
2017-12-29T00:46:59.685Z,5.17
2017-12-29T00:47:25.771Z,5.21
2017-12-29T00:47:51.866Z,5.32
2017-12-29T00:48:17.989Z,5.3
2017-12-29T00:48:44.093Z,5.33
2017-12-29T00:49:10.187Z,5.18
2017-12-29T00:49:36.285Z,5.18
2017-12-29T00:50:02.391Z,5.17
2017-12-29T00:50:28.502Z,5.1
2017-12-29T00:50:54.607Z,5.07
2017-12-29T00:51:20.705Z,5.18
2017-12-29T00:51:46.806Z,5.12
2017-12-29T00:52:12.912Z,5.14
2017-12-29T00:52:39.008Z,5.14
2017-12-29T00:53:05.106Z,5.21
2017-12-29T00:53:31.211Z,5.28
2017-12-29T00:53:57.307Z,5.25
2017-12-29T00:54:23.412Z,5.29
2017-12-29T00:54:49.524Z,5.26
2017-12-29T00:55:15.612Z,5.32
2017-12-29T00:55:41.713Z,5.3
2017-12-29T00:56:07.808Z,5.33
2017-12-29T00:56:33.906Z,5.32
2017-12-29T00:57:00.011Z,5.3
2017-12-29T00:57:26.111Z,5.3
2017-12-29T00:57:52.206Z,5.33
2017-12-29T00:58:18.312Z,5.25
2017-12-29T00:58:44.406Z,5.3
2017-12-29T00:59:10.507Z,5.28
2017-12-29T00:59:36.610Z,5.3
2017-12-29T01:00:02.711Z,5.26
2017-12-29T01:00:28.809Z,5.17
2017-12-29T01:00:54.908Z,5.2
2017-12-29T01:01:21.007Z,5.08
2017-12-29T01:01:47.108Z,5.21
2017-12-29T01:02:13.212Z,5.11
2017-12-29T01:02:39.315Z,5.07
2017-12-29T01:03:05.417Z,5.12
2017-12-29T01:03:31.519Z,5.12
2017-12-29T01:03:57.618Z,5.26
2017-12-29T01:04:23.719Z,5.07
2017-12-29T01:04:49.817Z,5.08
2017-12-29T01:05:15.915Z,5.11
2017-12-29T01:05:42.016Z,5
2017-12-29T01:06:08.113Z,5.07
2017-12-29T01:06:34.218Z,5.15
2017-12-29T01:07:00.319Z,5.11
2017-12-29T01:07:26.416Z,5.14
2017-12-29T01:07:52.514Z,5.05
2017-12-29T01:08:18.614Z,5.14
2017-12-29T01:08:44.720Z,5.07
2017-12-29T01:09:10.817Z,5.15
2017-12-29T01:09:36.920Z,5.05
2017-12-29T01:10:03.024Z,4.89
2017-12-29T01:10:29.120Z,5.05
2017-12-29T01:10:55.224Z,4.89
2017-12-29T01:11:21.327Z,4.9
2017-12-29T01:11:47.422Z,4.92
2017-12-29T01:12:13.546Z,4.93
2017-12-29T01:12:39.643Z,4.94
2017-12-29T01:13:05.742Z,4.75
2017-12-29T01:13:31.847Z,4.78
2017-12-29T01:13:57.944Z,4.77
2017-12-29T01:14:24.048Z,4.78
2017-12-29T01:14:50.148Z,4.77
2017-12-29T01:15:16.243Z,4.87
2017-12-29T01:15:42.344Z,4.77
2017-12-29T01:16:08.443Z,4.84
2017-12-29T01:16:34.547Z,4.86
2017-12-29T01:17:00.644Z,4.89
2017-12-29T01:17:26.743Z,4.84
2017-12-29T01:17:52.862Z,4.9
2017-12-29T01:18:18.968Z,4.96
2017-12-29T01:18:45.079Z,4.78
2017-12-29T01:19:11.174Z,4.89
2017-12-29T01:19:37.279Z,4.96
2017-12-29T01:20:03.380Z,5
2017-12-29T01:20:29.496Z,4.89
2017-12-29T01:20:55.598Z,4.89
2017-12-29T01:21:21.695Z,4.93
2017-12-29T01:21:47.792Z,4.89
2017-12-29T01:22:13.895Z,4.94
2017-12-29T01:22:40.000Z,4.89
2017-12-29T01:23:06.095Z,4.9
2017-12-29T01:23:32.201Z,4.93
2017-12-29T01:23:58.308Z,4.84
2017-12-29T01:24:24.403Z,4.9
2017-12-29T01:24:50.506Z,4.96
2017-12-29T01:25:16.604Z,4.89
2017-12-29T01:25:42.701Z,4.87
2017-12-29T01:26:08.804Z,5.02
2017-12-29T01:26:34.901Z,4.9
2017-12-29T01:27:00.997Z,5.02
2017-12-29T01:27:27.102Z,5.05
2017-12-29T01:27:53.204Z,5.05
2017-12-29T01:28:19.308Z,4.93
2017-12-29T01:28:45.411Z,4.9
2017-12-29T01:29:11.511Z,4.99
2017-12-29T01:29:37.605Z,5.02
2017-12-29T01:30:03.710Z,5.07
2017-12-29T01:30:29.809Z,5.05
2017-12-29T01:30:55.910Z,5.12
2017-12-29T01:31:22.016Z,4.92
2017-12-29T01:31:48.114Z,4.86
2017-12-29T01:32:14.211Z,4.92
2017-12-29T01:32:40.313Z,4.92
2017-12-29T01:33:06.425Z,4.9
2017-12-29T01:33:32.528Z,5.05
2017-12-29T01:33:58.624Z,4.93
2017-12-29T01:34:24.727Z,4.94
2017-12-29T01:34:50.823Z,4.96
2017-12-29T01:35:16.928Z,4.94
2017-12-29T01:35:43.038Z,4.89
2017-12-29T01:36:09.134Z,4.93
2017-12-29T01:36:35.243Z,4.89
2017-12-29T01:37:01.334Z,4.96
2017-12-29T01:37:27.442Z,5.07
2017-12-29T01:37:53.528Z,5.07
2017-12-29T01:38:19.629Z,5.02
2017-12-29T01:38:45.743Z,4.89
2017-12-29T01:39:11.834Z,4.9
2017-12-29T01:39:37.934Z,4.9
2017-12-29T01:40:04.067Z,4.94
2017-12-29T01:40:30.166Z,5
2017-12-29T01:40:56.267Z,4.92
2017-12-29T01:41:22.376Z,4.93
2017-12-29T01:41:48.477Z,4.82
2017-12-29T01:42:14.642Z,4.77
2017-12-29T01:42:40.746Z,4.74
2017-12-29T01:43:06.874Z,4.68
2017-12-29T01:43:32.982Z,4.75
2017-12-29T01:43:59.087Z,4.74
2017-12-29T01:44:25.194Z,4.75
2017-12-29T01:44:51.326Z,4.73
2017-12-29T01:45:17.422Z,4.78
2017-12-29T01:45:43.526Z,4.73
2017-12-29T01:46:09.631Z,4.75
2017-12-29T01:46:35.730Z,4.86
2017-12-29T01:47:01.830Z,4.86
2017-12-29T01:47:27.930Z,4.82
2017-12-29T01:47:54.032Z,4.97
2017-12-29T01:48:20.126Z,4.93
2017-12-29T01:48:46.230Z,4.87
2017-12-29T01:49:12.324Z,4.82
2017-12-29T01:49:38.432Z,4.82
2017-12-29T01:50:04.527Z,4.75
2017-12-29T01:50:30.633Z,4.66
2017-12-29T01:50:56.733Z,4.63
2017-12-29T01:51:22.829Z,4.58
2017-12-29T01:51:48.934Z,4.6
2017-12-29T01:52:15.039Z,4.55
2017-12-29T01:52:41.136Z,4.59
2017-12-29T01:53:07.234Z,4.53
2017-12-29T01:53:33.336Z,4.5
2017-12-29T01:53:59.433Z,4.45
2017-12-29T01:54:25.537Z,4.49
2017-12-29T01:54:51.632Z,4.49
2017-12-29T01:55:17.738Z,4.5
2017-12-29T01:55:43.840Z,4.41
2017-12-29T01:56:09.939Z,4.53
2017-12-29T01:56:36.058Z,4.48
2017-12-29T01:57:02.159Z,4.59
2017-12-29T01:57:28.250Z,4.58
2017-12-29T01:57:54.355Z,4.49
2017-12-29T01:58:20.450Z,4.49
2017-12-29T01:58:46.546Z,4.41
2017-12-29T01:59:12.652Z,4.42
2017-12-29T01:59:38.765Z,4.49
2017-12-29T02:00:04.875Z,4.53
2017-12-29T02:00:30.976Z,4.52
2017-12-29T02:00:57.094Z,4.42
2017-12-29T02:01:23.190Z,4.53
2017-12-29T02:01:49.292Z,4.49
2017-12-29T02:02:15.390Z,4.53
2017-12-29T02:02:41.492Z,4.45
2017-12-29T02:03:07.601Z,4.45
2017-12-29T02:03:33.699Z,4.53
2017-12-29T02:03:59.800Z,4.42
2017-12-29T02:04:25.928Z,4.5
2017-12-29T02:04:52.024Z,4.38
2017-12-29T02:05:18.129Z,4.45
2017-12-29T02:05:44.264Z,4.42
2017-12-29T02:06:10.332Z,4.56
2017-12-29T02:06:36.429Z,4.45
2017-12-29T02:07:02.542Z,4.48
2017-12-29T02:07:28.642Z,4.4
2017-12-29T02:07:54.738Z,4.48
2017-12-29T02:08:20.842Z,4.49
2017-12-29T02:08:46.943Z,4.4
2017-12-29T02:09:13.040Z,4.37
2017-12-29T02:09:39.142Z,4.34
2017-12-29T02:10:05.240Z,4.24
2017-12-29T02:10:31.337Z,4.24
2017-12-29T02:10:57.441Z,4.32
2017-12-29T02:11:23.537Z,4.23
2017-12-29T02:11:49.640Z,4.22
2017-12-29T02:12:15.742Z,4.23
2017-12-29T02:12:41.836Z,4.26
2017-12-29T02:13:07.936Z,4.3
2017-12-29T02:13:34.038Z,4.34
2017-12-29T02:14:00.144Z,4.28
2017-12-29T02:14:26.254Z,4.2
2017-12-29T02:14:52.359Z,4.23
2017-12-29T02:15:18.458Z,4.19
2017-12-29T02:15:44.551Z,4.19
2017-12-29T02:16:10.657Z,4.19
2017-12-29T02:16:36.752Z,4.19
2017-12-29T02:17:02.857Z,4.22
2017-12-29T02:17:28.953Z,4.24
2017-12-29T02:17:55.054Z,4.24
2017-12-29T02:18:21.152Z,4.19
2017-12-29T02:18:47.256Z,4.17
2017-12-29T02:19:13.359Z,4.16
2017-12-29T02:19:39.456Z,4.22
2017-12-29T02:20:05.561Z,4.19
2017-12-29T02:20:31.657Z,4.31
2017-12-29T02:20:57.758Z,4.3
2017-12-29T02:21:23.863Z,4.19
2017-12-29T02:21:49.960Z,4.19
2017-12-29T02:22:16.065Z,4.17
2017-12-29T02:22:42.164Z,4.17
2017-12-29T02:23:08.259Z,4.2
2017-12-29T02:23:34.357Z,4.19
2017-12-29T02:24:00.460Z,4.2
2017-12-29T02:24:26.561Z,4.2
2017-12-29T02:24:52.656Z,4.17
2017-12-29T02:25:18.777Z,4.31
2017-12-29T02:25:44.876Z,4.37
2017-12-29T02:26:10.972Z,4.2
2017-12-29T02:26:37.076Z,4.28
2017-12-29T02:27:03.170Z,4.24
2017-12-29T02:27:29.273Z,4.2
2017-12-29T02:27:55.373Z,4.17
2017-12-29T02:28:21.475Z,4.1
2017-12-29T02:28:47.573Z,4.12
2017-12-29T02:29:13.670Z,4.14
2017-12-29T02:29:39.770Z,4.24
2017-12-29T02:30:05.868Z,4.16
2017-12-29T02:30:31.974Z,4.2
2017-12-29T02:30:58.069Z,4.2
2017-12-29T02:31:24.172Z,4.19
2017-12-29T02:31:50.275Z,4.2
2017-12-29T02:32:16.372Z,4.16
2017-12-29T02:32:42.468Z,4.2
2017-12-29T02:33:08.583Z,4.2
2017-12-29T02:33:34.687Z,4.17
2017-12-29T02:34:00.802Z,4.19
2017-12-29T02:34:26.892Z,4.14
2017-12-29T02:34:52.988Z,4.14
2017-12-29T02:35:19.096Z,4.2
2017-12-29T02:35:45.200Z,4.19
2017-12-29T02:36:11.297Z,4.28
2017-12-29T02:36:37.394Z,4.2
2017-12-29T02:37:03.491Z,4.16
2017-12-29T02:37:29.588Z,4.17
2017-12-29T02:37:55.693Z,4.05
2017-12-29T02:38:21.786Z,4.01
2017-12-29T02:38:47.904Z,4.05
2017-12-29T02:39:14.002Z,4.08
2017-12-29T02:39:40.101Z,4.1
2017-12-29T02:40:06.217Z,4.1
2017-12-29T02:40:32.321Z,4.06
2017-12-29T02:40:58.419Z,4.08
2017-12-29T02:41:24.525Z,4.04
2017-12-29T02:41:50.626Z,4.04
2017-12-29T02:42:16.719Z,3.94
2017-12-29T02:42:42.820Z,3.96
2017-12-29T02:43:08.923Z,3.92
2017-12-29T02:43:35.024Z,4.05
2017-12-29T02:44:01.135Z,4.08
2017-12-29T02:44:27.239Z,4.04
2017-12-29T02:44:53.334Z,4.05
2017-12-29T02:45:19.439Z,4.04
2017-12-29T02:45:45.536Z,3.96
2017-12-29T02:46:11.634Z,3.91
2017-12-29T02:46:37.736Z,3.86
2017-12-29T02:47:03.838Z,4.02
2017-12-29T02:47:29.935Z,3.94
2017-12-29T02:47:56.042Z,3.96
2017-12-29T02:48:22.139Z,3.86
2017-12-29T02:48:48.241Z,3.92
2017-12-29T02:49:14.343Z,3.92
2017-12-29T02:49:40.435Z,3.91
2017-12-29T02:50:06.533Z,4.01
2017-12-29T02:50:32.630Z,3.94
2017-12-29T02:50:58.727Z,3.96
2017-12-29T02:51:24.822Z,4.04
2017-12-29T02:51:50.928Z,3.99
2017-12-29T02:52:17.026Z,3.95
2017-12-29T02:52:43.126Z,3.96
2017-12-29T02:53:09.227Z,3.88
2017-12-29T02:53:35.328Z,3.91
2017-12-29T02:54:01.420Z,4.04
2017-12-29T02:54:27.524Z,3.98
2017-12-29T02:54:53.625Z,3.99
2017-12-29T02:55:19.726Z,4.01
2017-12-29T02:55:45.830Z,4.01
2017-12-29T02:56:11.930Z,4.01
2017-12-29T02:56:38.033Z,3.96
2017-12-29T02:57:04.150Z,3.92
2017-12-29T02:57:30.244Z,3.99
2017-12-29T02:57:56.342Z,3.95
2017-12-29T02:58:22.444Z,3.98
2017-12-29T02:58:48.540Z,3.99
2017-12-29T02:59:14.644Z,4.02
2017-12-29T02:59:40.741Z,3.98
2017-12-29T03:00:06.843Z,4.01
2017-12-29T03:00:32.938Z,3.94
2017-12-29T03:00:59.062Z,3.88
2017-12-29T03:01:25.156Z,3.98
2017-12-29T03:01:51.255Z,3.96
2017-12-29T03:02:17.359Z,3.96
2017-12-29T03:02:43.456Z,3.99
2017-12-29T03:03:09.555Z,3.96
2017-12-29T03:03:35.660Z,3.94
2017-12-29T03:04:01.774Z,4.01
2017-12-29T03:04:27.869Z,3.99
2017-12-29T03:04:53.975Z,3.88
2017-12-29T03:05:20.077Z,3.83
2017-12-29T03:05:46.178Z,3.88
2017-12-29T03:06:12.281Z,3.73
2017-12-29T03:06:38.383Z,3.83
2017-12-29T03:07:04.480Z,3.83
2017-12-29T03:07:30.597Z,3.86
2017-12-29T03:07:56.699Z,3.87
2017-12-29T03:08:22.793Z,3.86
2017-12-29T03:08:48.896Z,3.88
2017-12-29T03:09:15.011Z,3.84
2017-12-29T03:09:41.130Z,3.74
2017-12-29T03:10:07.233Z,3.68
2017-12-29T03:10:33.325Z,3.74
2017-12-29T03:10:59.429Z,3.81
2017-12-29T03:11:25.529Z,3.84
2017-12-29T03:11:51.625Z,3.86
2017-12-29T03:12:17.721Z,3.83
2017-12-29T03:12:43.843Z,3.87
2017-12-29T03:13:09.959Z,3.86
2017-12-29T03:13:36.064Z,3.86
2017-12-29T03:14:02.156Z,3.96
2017-12-29T03:14:28.256Z,3.96
2017-12-29T03:14:54.406Z,3.96
2017-12-29T03:15:20.453Z,3.86
2017-12-29T03:15:46.557Z,3.77
2017-12-29T03:16:12.677Z,3.83
2017-12-29T03:16:38.777Z,3.92
2017-12-29T03:17:04.881Z,3.88
2017-12-29T03:17:30.980Z,3.92
2017-12-29T03:17:57.075Z,3.92
2017-12-29T03:18:23.171Z,3.88
2017-12-29T03:18:49.273Z,3.84
2017-12-29T03:19:15.375Z,3.83
2017-12-29T03:19:41.491Z,3.81
2017-12-29T03:20:07.607Z,3.81
2017-12-29T03:20:33.704Z,3.8
2017-12-29T03:20:59.823Z,3.78
2017-12-29T03:21:25.911Z,3.87
2017-12-29T03:21:52.021Z,3.78
2017-12-29T03:22:18.119Z,3.81
2017-12-29T03:22:44.224Z,3.83
2017-12-29T03:23:10.319Z,3.88
2017-12-29T03:23:36.420Z,3.78
2017-12-29T03:24:02.523Z,3.86
2017-12-29T03:24:28.617Z,3.8
2017-12-29T03:24:54.738Z,3.78
2017-12-29T03:25:20.858Z,3.81
2017-12-29T03:25:46.954Z,3.8
2017-12-29T03:26:13.053Z,3.81
2017-12-29T03:26:39.157Z,3.78
2017-12-29T03:27:05.255Z,3.77
2017-12-29T03:27:31.371Z,3.77
2017-12-29T03:27:57.470Z,3.76
2017-12-29T03:28:23.571Z,3.62
2017-12-29T03:28:49.674Z,3.65
2017-12-29T03:29:15.771Z,3.6
2017-12-29T03:29:41.870Z,3.69
2017-12-29T03:30:07.974Z,3.68
2017-12-29T03:30:34.076Z,3.68
2017-12-29T03:31:00.176Z,3.65
2017-12-29T03:31:26.287Z,3.65
2017-12-29T03:31:52.391Z,3.56
2017-12-29T03:32:18.490Z,3.66
2017-12-29T03:32:44.582Z,3.7
2017-12-29T03:33:10.685Z,3.6
2017-12-29T03:33:36.780Z,3.65
2017-12-29T03:34:02.881Z,3.6
2017-12-29T03:34:28.976Z,3.63
2017-12-29T03:34:55.074Z,3.62
2017-12-29T03:35:21.176Z,3.77
2017-12-29T03:35:47.271Z,3.65
2017-12-29T03:36:13.365Z,3.7
2017-12-29T03:36:39.469Z,3.69
2017-12-29T03:37:05.566Z,3.62
2017-12-29T03:37:31.670Z,3.68
2017-12-29T03:37:57.769Z,3.66
2017-12-29T03:38:23.869Z,3.69
2017-12-29T03:38:49.974Z,3.62
2017-12-29T03:39:16.071Z,3.74
2017-12-29T03:39:42.166Z,3.77
2017-12-29T03:40:08.271Z,3.74
2017-12-29T03:40:34.371Z,3.69
2017-12-29T03:41:00.474Z,3.81
2017-12-29T03:41:26.580Z,3.76
2017-12-29T03:41:52.684Z,3.77
2017-12-29T03:42:18.781Z,3.76
2017-12-29T03:42:44.880Z,3.77
2017-12-29T03:43:10.978Z,3.63
2017-12-29T03:43:37.081Z,3.74
2017-12-29T03:44:03.177Z,3.76
2017-12-29T03:44:29.283Z,3.78
2017-12-29T03:44:55.375Z,3.65
2017-12-29T03:45:21.479Z,3.65
2017-12-29T03:45:47.580Z,3.77
2017-12-29T03:46:13.696Z,3.65
2017-12-29T03:46:39.791Z,3.68
2017-12-29T03:47:05.896Z,3.77
2017-12-29T03:47:31.990Z,3.73
2017-12-29T03:47:58.088Z,3.77
2017-12-29T03:48:24.188Z,3.8
2017-12-29T03:48:50.300Z,3.76
2017-12-29T03:49:16.422Z,3.86
2017-12-29T03:49:42.520Z,3.77
2017-12-29T03:50:08.616Z,3.74
2017-12-29T03:50:34.722Z,3.78
2017-12-29T03:51:00.818Z,3.78
2017-12-29T03:51:26.915Z,3.68
2017-12-29T03:51:53.017Z,3.77
2017-12-29T03:52:19.121Z,3.73
2017-12-29T03:52:45.234Z,3.74
2017-12-29T03:53:11.337Z,3.73
2017-12-29T03:53:37.431Z,3.63
2017-12-29T03:54:03.546Z,3.63
2017-12-29T03:54:29.652Z,3.62
2017-12-29T03:54:55.753Z,3.62
2017-12-29T03:55:21.849Z,3.77
2017-12-29T03:55:47.947Z,3.62
2017-12-29T03:56:14.052Z,3.69
2017-12-29T03:56:40.148Z,3.66
2017-12-29T03:57:06.251Z,3.63
2017-12-29T03:57:32.349Z,3.68
2017-12-29T03:57:58.454Z,3.65
2017-12-29T03:58:24.555Z,3.73
2017-12-29T03:58:50.661Z,3.65
2017-12-29T03:59:16.763Z,3.65
2017-12-29T03:59:42.873Z,3.77
2017-12-29T04:00:08.978Z,3.78
2017-12-29T04:00:35.074Z,3.78
2017-12-29T04:01:01.180Z,3.78
2017-12-29T04:01:27.277Z,3.68
2017-12-29T04:01:53.375Z,3.69
2017-12-29T04:02:19.481Z,3.76
2017-12-29T04:02:45.572Z,3.74
2017-12-29T04:03:11.675Z,3.62
2017-12-29T04:03:37.774Z,3.62
2017-12-29T04:04:03.878Z,3.69
2017-12-29T04:04:29.973Z,3.65
2017-12-29T04:04:56.077Z,3.62
2017-12-29T04:05:22.176Z,3.59
2017-12-29T04:05:48.292Z,3.5
2017-12-29T04:06:14.389Z,3.6
2017-12-29T04:06:40.496Z,3.51
2017-12-29T04:07:06.595Z,3.51
2017-12-29T04:07:32.691Z,3.55
2017-12-29T04:07:58.795Z,3.56
2017-12-29T04:08:24.889Z,3.48
2017-12-29T04:08:50.988Z,3.51
2017-12-29T04:09:17.085Z,3.58
2017-12-29T04:09:43.182Z,3.5
2017-12-29T04:10:09.302Z,3.48
2017-12-29T04:10:35.398Z,3.44
2017-12-29T04:11:01.501Z,3.36
2017-12-29T04:11:27.608Z,3.47
2017-12-29T04:11:53.699Z,3.37
2017-12-29T04:12:19.800Z,3.42
2017-12-29T04:12:45.898Z,3.44
2017-12-29T04:13:11.995Z,3.42
2017-12-29T04:13:38.118Z,3.42
2017-12-29T04:14:04.210Z,3.42
2017-12-29T04:14:30.316Z,3.42
2017-12-29T04:14:56.414Z,3.47
2017-12-29T04:15:22.515Z,3.53
2017-12-29T04:15:48.616Z,3.5
2017-12-29T04:16:14.712Z,3.48
2017-12-29T04:16:40.810Z,3.51
2017-12-29T04:17:06.915Z,3.55
2017-12-29T04:17:33.015Z,3.63
2017-12-29T04:17:59.111Z,3.56
2017-12-29T04:18:25.214Z,3.55
2017-12-29T04:18:51.307Z,3.55
2017-12-29T04:19:17.410Z,3.53
2017-12-29T04:19:43.504Z,3.56
2017-12-29T04:20:09.600Z,3.59
2017-12-29T04:20:35.707Z,3.62
2017-12-29T04:21:01.803Z,3.55
2017-12-29T04:21:27.898Z,3.6
2017-12-29T04:21:53.993Z,3.6
2017-12-29T04:22:20.096Z,3.55
2017-12-29T04:22:46.189Z,3.6
2017-12-29T04:23:12.291Z,3.56
2017-12-29T04:23:38.402Z,3.59
2017-12-29T04:24:04.502Z,3.56
2017-12-29T04:24:30.597Z,3.55
2017-12-29T04:24:56.697Z,3.45
2017-12-29T04:25:22.803Z,3.48
2017-12-29T04:25:48.916Z,3.47
2017-12-29T04:26:15.021Z,3.48
2017-12-29T04:26:41.120Z,3.42
2017-12-29T04:27:07.215Z,3.48
2017-12-29T04:27:33.312Z,3.48
2017-12-29T04:27:59.415Z,3.41
2017-12-29T04:28:25.510Z,3.48
2017-12-29T04:28:51.614Z,3.48
2017-12-29T04:29:17.714Z,3.55
2017-12-29T04:29:43.815Z,3.51
2017-12-29T04:30:09.919Z,3.45
2017-12-29T04:30:36.021Z,3.41
2017-12-29T04:31:02.116Z,3.5
2017-12-29T04:31:28.240Z,3.51
2017-12-29T04:31:54.339Z,3.42
2017-12-29T04:32:20.436Z,3.48
2017-12-29T04:32:46.538Z,3.42
2017-12-29T04:33:12.633Z,3.55
2017-12-29T04:33:38.734Z,3.42
2017-12-29T04:34:04.833Z,3.37
2017-12-29T04:34:30.937Z,3.42
2017-12-29T04:34:57.031Z,3.45
2017-12-29T04:35:23.134Z,3.45
2017-12-29T04:35:49.237Z,3.53
2017-12-29T04:36:15.333Z,3.44
2017-12-29T04:36:41.456Z,3.41
2017-12-29T04:37:07.548Z,3.37
2017-12-29T04:37:33.653Z,3.53
2017-12-29T04:37:59.749Z,3.42
2017-12-29T04:38:25.850Z,3.44
2017-12-29T04:38:51.947Z,3.47
2017-12-29T04:39:18.049Z,3.56
2017-12-29T04:39:44.152Z,3.45
2017-12-29T04:40:10.252Z,3.48
2017-12-29T04:40:36.351Z,3.45
2017-12-29T04:41:02.444Z,3.5
2017-12-29T04:41:28.550Z,3.48
2017-12-29T04:41:54.652Z,3.48
2017-12-29T04:42:20.754Z,3.48
2017-12-29T04:42:46.849Z,3.55
2017-12-29T04:43:12.955Z,3.48
2017-12-29T04:43:39.053Z,3.45
2017-12-29T04:44:05.154Z,3.51
2017-12-29T04:44:31.259Z,3.5
2017-12-29T04:44:57.355Z,3.48
2017-12-29T04:45:23.457Z,3.42
2017-12-29T04:45:49.551Z,3.42
2017-12-29T04:46:15.652Z,3.42
2017-12-29T04:46:41.745Z,3.42
2017-12-29T04:47:07.843Z,3.4
2017-12-29T04:47:33.952Z,3.32
2017-12-29T04:48:00.057Z,3.41
2017-12-29T04:48:26.157Z,3.36
2017-12-29T04:48:52.253Z,3.4
2017-12-29T04:49:18.355Z,3.42
2017-12-29T04:49:44.455Z,3.34
2017-12-29T04:50:10.562Z,3.37
2017-12-29T04:50:36.655Z,3.25
2017-12-29T04:51:02.750Z,3.4
2017-12-29T04:51:28.848Z,3.44
2017-12-29T04:51:54.960Z,3.4
2017-12-29T04:52:21.058Z,3.42
2017-12-29T04:52:47.154Z,3.42
2017-12-29T04:53:13.251Z,3.41
2017-12-29T04:53:39.354Z,3.44
2017-12-29T04:54:05.455Z,3.34
2017-12-29T04:54:31.572Z,3.41
2017-12-29T04:54:57.668Z,3.45
2017-12-29T04:55:23.775Z,3.47
2017-12-29T04:55:49.877Z,3.42
2017-12-29T04:56:15.972Z,3.44
2017-12-29T04:56:42.077Z,3.42
2017-12-29T04:57:08.176Z,3.37
2017-12-29T04:57:34.291Z,3.44
2017-12-29T04:58:00.388Z,3.34
2017-12-29T04:58:26.487Z,3.32
2017-12-29T04:58:52.591Z,3.31
2017-12-29T04:59:18.702Z,3.31
2017-12-29T04:59:44.806Z,3.41
2017-12-29T05:00:10.903Z,3.42
2017-12-29T05:00:37.006Z,3.53
2017-12-29T05:01:03.107Z,3.42
2017-12-29T05:01:29.199Z,3.36
2017-12-29T05:01:55.304Z,3.25
2017-12-29T05:02:21.402Z,3.23
2017-12-29T05:02:47.503Z,3.36
2017-12-29T05:03:13.616Z,3.44
2017-12-29T05:03:39.719Z,3.41
2017-12-29T05:04:05.814Z,3.41
2017-12-29T05:04:31.916Z,3.41
2017-12-29T05:04:58.015Z,3.42
2017-12-29T05:05:24.112Z,3.4
2017-12-29T05:05:50.208Z,3.45
2017-12-29T05:06:16.310Z,3.41
2017-12-29T05:06:42.403Z,3.34
2017-12-29T05:07:08.507Z,3.36
2017-12-29T05:07:34.609Z,3.4
2017-12-29T05:08:00.705Z,3.29
2017-12-29T05:08:26.807Z,3.31
2017-12-29T05:08:52.907Z,3.25
2017-12-29T05:09:19.008Z,3.31
2017-12-29T05:09:45.109Z,3.26
2017-12-29T05:10:11.200Z,3.28
2017-12-29T05:10:37.311Z,3.42
2017-12-29T05:11:03.404Z,3.41
2017-12-29T05:11:29.504Z,3.47
2017-12-29T05:11:55.598Z,3.28
2017-12-29T05:12:21.693Z,3.4
2017-12-29T05:12:47.798Z,3.41
2017-12-29T05:13:13.904Z,3.37
2017-12-29T05:13:39.998Z,3.25
2017-12-29T05:14:06.095Z,3.21
2017-12-29T05:14:32.201Z,3.29
2017-12-29T05:14:58.296Z,3.21
2017-12-29T05:15:24.398Z,3.34
2017-12-29T05:15:50.495Z,3.34
2017-12-29T05:16:16.593Z,3.41
2017-12-29T05:16:42.690Z,3.56
2017-12-29T05:17:08.800Z,3.48
2017-12-29T05:17:34.901Z,3.41
2017-12-29T05:18:00.997Z,3.48
2017-12-29T05:18:27.141Z,3.41
2017-12-29T05:18:53.199Z,3.4
2017-12-29T05:19:19.301Z,3.37
2017-12-29T05:19:45.414Z,3.34
2017-12-29T05:20:11.514Z,3.36
2017-12-29T05:20:37.608Z,3.37
2017-12-29T05:21:03.736Z,3.45
2017-12-29T05:21:29.834Z,3.4
2017-12-29T05:21:55.932Z,3.32
2017-12-29T05:22:22.032Z,3.37
2017-12-29T05:22:48.133Z,3.37
2017-12-29T05:23:14.231Z,3.41
2017-12-29T05:23:40.351Z,3.41
2017-12-29T05:24:06.464Z,3.44
2017-12-29T05:24:32.569Z,3.44
2017-12-29T05:24:58.661Z,3.45
2017-12-29T05:25:24.762Z,3.45
2017-12-29T05:25:50.862Z,3.47
2017-12-29T05:26:16.959Z,3.53
2017-12-29T05:26:43.057Z,3.55
2017-12-29T05:27:09.163Z,3.44
2017-12-29T05:27:35.257Z,3.37
2017-12-29T05:28:01.356Z,3.37
2017-12-29T05:28:27.459Z,3.37
2017-12-29T05:28:53.575Z,3.25
2017-12-29T05:29:19.676Z,3.32
2017-12-29T05:29:45.776Z,3.26
2017-12-29T05:30:11.873Z,3.22
2017-12-29T05:30:37.975Z,3.25
2017-12-29T05:31:04.071Z,3.4
2017-12-29T05:31:30.169Z,3.21
2017-12-29T05:31:56.271Z,3.18
2017-12-29T05:32:22.367Z,3.16
2017-12-29T05:32:48.466Z,3.13
2017-12-29T05:33:14.570Z,3.21
2017-12-29T05:33:40.666Z,3.14
2017-12-29T05:34:06.764Z,3.21
2017-12-29T05:34:32.887Z,3.19
2017-12-29T05:34:58.981Z,3.18
2017-12-29T05:35:25.085Z,3.18
2017-12-29T05:35:51.179Z,3.25
2017-12-29T05:36:17.284Z,3.21
2017-12-29T05:36:43.385Z,3.21
2017-12-29T05:37:09.488Z,3.22
2017-12-29T05:37:35.579Z,3.28
2017-12-29T05:38:01.689Z,3.34
2017-12-29T05:38:27.793Z,3.18
2017-12-29T05:38:53.884Z,3.21
2017-12-29T05:39:19.982Z,3.23
2017-12-29T05:39:46.079Z,3.19
2017-12-29T05:40:12.178Z,3.11
2017-12-29T05:40:38.277Z,3.07
2017-12-29T05:41:04.378Z,3.11
2017-12-29T05:41:30.481Z,3.13
2017-12-29T05:41:56.577Z,3.04
2017-12-29T05:42:22.674Z,3.07
2017-12-29T05:42:48.780Z,3.16
2017-12-29T05:43:14.874Z,3.11
2017-12-29T05:43:40.972Z,3.03
2017-12-29T05:44:07.073Z,2.98
2017-12-29T05:44:33.172Z,3
2017-12-29T05:44:59.276Z,3.07
2017-12-29T05:45:25.370Z,3.03
2017-12-29T05:45:51.474Z,2.93
2017-12-29T05:46:17.572Z,2.98
2017-12-29T05:46:43.668Z,3.05
2017-12-29T05:47:09.766Z,3.03
2017-12-29T05:47:35.867Z,3.07
2017-12-29T05:48:01.977Z,3.05
2017-12-29T05:48:28.073Z,3.03